Time;durP1;ratioP1;P1;durP2;ratioP2;P2;SDS_P1;SDS_P2;PMS_P1;PMS_P2;Temp;Humidity;BMP_temperature;BMP_pressure;BME280_temperature;BME280_humidity;BME280_pressure;Samples;Min_cycle;Max_cycle;Signal;HPM_P1;HPM_P2
2023/11/08 00:00:27;;;;;;;8.77;5.70;;;;;21.60;100029.00;;;;2088586;28;20680;-65
2023/11/08 00:01:28;;;;;;;9.63;6.03;;;;;21.60;100032.00;;;;2095538;28;20254;-65
2023/11/08 00:02:28;;;;;;;8.03;6.10;;;;;21.60;100024.00;;;;2087849;28;20219;-65
2023/11/08 00:03:28;;;;;;;8.53;6.13;;;;;21.60;100022.00;;;;2086331;28;20216;-65
2023/11/08 00:04:29;;;;;;;7.77;5.70;;;;;21.60;100028.00;;;;2081202;28;20224;-65
2023/11/08 00:05:29;;;;;;;7.90;5.63;;;;;21.60;100026.00;;;;2079808;28;20221;-65
2023/11/08 00:06:30;;;;;;;10.63;5.87;;;;;21.60;100031.00;;;;2094103;28;20250;-65
2023/11/08 00:07:30;;;;;;;8.90;5.80;;;;;21.60;100020.00;;;;2089868;28;20575;-65
2023/11/08 00:08:30;;;;;;;8.20;5.10;;;;;21.60;100027.00;;;;2091977;28;20631;-65
2023/11/08 00:09:31;;;;;;;6.60;4.13;;;;;21.50;100036.00;;;;2083571;28;20983;-65
2023/11/08 00:10:31;;;;;;;7.00;5.07;;;;;21.60;100030.00;;;;2083180;28;20685;-65
2023/11/08 00:11:32;;;;;;;8.13;5.70;;;;;21.50;99999.00;;;;2086417;28;20216;-65
2023/11/08 00:12:33;;;;;;;9.70;6.23;;;;;21.50;100032.00;;;;2069175;28;20456;-65
2023/11/08 00:13:33;;;;;;;6.88;5.25;;;;;21.50;100029.00;;;;2086446;28;20216;-65
2023/11/08 00:14:33;;;;;;;6.90;4.70;;;;;21.50;100036.00;;;;2083122;28;20215;-65
2023/11/08 00:15:34;;;;;;;7.50;4.40;;;;;21.50;100034.00;;;;2080243;28;20217;-65
2023/11/08 00:16:34;;;;;;;5.73;3.77;;;;;21.50;100031.00;;;;2089238;28;20225;-65
2023/11/08 00:17:35;;;;;;;8.37;5.77;;;;;21.50;100034.00;;;;2086423;28;20236;-65
2023/11/08 00:18:36;;;;;;;5.95;4.53;;;;;21.50;100027.00;;;;2087427;28;20292;-65
2023/11/08 00:19:36;;;;;;;7.40;4.50;;;;;21.40;100024.00;;;;2086362;28;20225;-65
2023/11/08 00:20:36;;;;;;;6.20;4.50;;;;;21.50;100035.00;;;;2086968;28;20597;-65
2023/11/08 00:21:37;;;;;;;6.03;4.13;;;;;21.50;99990.00;;;;2089321;28;20247;-65
2023/11/08 00:22:37;;;;;;;6.93;4.70;;;;;21.50;100042.00;;;;2086348;28;20212;-65
2023/11/08 00:23:39;;;;;;;6.90;4.37;;;;;21.50;100041.00;;;;2088279;28;20205;-65
2023/11/08 00:24:40;;;;;;;5.60;4.38;;;;;21.50;100044.00;;;;2094457;28;20208;-65
2023/11/08 00:25:40;;;;;;;5.30;3.53;;;;;21.50;100039.00;;;;2089211;28;20217;-65
2023/11/08 00:26:40;;;;;;;5.30;3.80;;;;;21.50;100041.00;;;;2096341;28;20220;-65
2023/11/08 00:27:41;;;;;;;4.80;3.53;;;;;21.50;100039.00;;;;2083858;28;20303;-65
2023/11/08 00:28:42;;;;;;;5.77;4.23;;;;;21.50;99999.00;;;;2089090;28;20201;-65
2023/11/08 00:29:43;;;;;;;5.75;3.47;;;;;21.50;100043.00;;;;2093817;28;20253;-65
2023/11/08 00:30:43;;;;;;;5.73;3.93;;;;;21.50;100030.00;;;;2086385;28;20256;-65
2023/11/08 00:31:43;;;;;;;4.07;3.33;;;;;21.50;100044.00;;;;2095414;28;20200;-65
2023/11/08 00:32:44;;;;;;;5.97;3.67;;;;;21.50;100039.00;;;;2079316;28;20193;-65
2023/11/08 00:33:44;;;;;;;4.90;3.60;;;;;21.50;100044.00;;;;2090457;28;20204;-65
2023/11/08 00:34:44;;;;;;;6.17;3.93;;;;;21.50;100041.00;;;;2091538;28;20204;-65
2023/11/08 00:35:45;;;;;;;5.03;3.10;;;;;21.50;100038.00;;;;2089700;28;20210;-65
2023/11/08 00:36:45;;;;;;;6.73;3.33;;;;;21.50;100039.00;;;;2095280;28;20231;-65
2023/11/08 00:37:45;;;;;;;5.77;3.47;;;;;21.50;100029.00;;;;2082198;28;21051;-65
2023/11/08 00:38:46;;;;;;;5.70;3.80;;;;;21.40;100029.00;;;;2096152;28;20204;-65
2023/11/08 00:39:47;;;;;;;5.10;3.27;;;;;21.50;100037.00;;;;2092322;28;20246;-65
2023/11/08 00:40:47;;;;;;;4.87;3.60;;;;;21.40;100051.00;;;;2090624;28;20501;-65
2023/11/08 00:41:48;;;;;;;7.60;3.67;;;;;21.50;100034.00;;;;2096212;28;20447;-65
2023/11/08 00:42:49;;;;;;;3.40;2.53;;;;;21.50;99999.00;;;;2080807;28;20442;-65
2023/11/08 00:43:49;;;;;;;4.17;2.60;;;;;21.40;100037.00;;;;2096251;28;20455;-65
2023/11/08 00:44:50;;;;;;;4.67;3.40;;;;;21.40;100039.00;;;;2090542;28;20245;-65
2023/11/08 00:45:51;;;;;;;3.30;2.37;;;;;21.40;100035.00;;;;2090987;28;20200;-65
2023/11/08 00:46:54;;;;;;;4.35;2.92;;;;;21.40;100040.00;;;;2093358;28;20200;-65
2023/11/08 00:47:55;;;;;;;4.50;2.78;;;;;21.40;100041.00;;;;2081504;28;20224;-65
2023/11/08 00:48:55;;;;;;;3.92;2.78;;;;;21.40;100033.00;;;;2096272;28;20212;-65
2023/11/08 00:49:55;;;;;;;4.10;2.87;;;;;21.40;100041.00;;;;2087319;28;20399;-65
2023/11/08 00:50:56;;;;;;;6.60;2.87;;;;;21.40;100042.00;;;;2090888;28;20588;-65
2023/11/08 00:52:00;;;;;;;4.40;2.87;;;;;21.40;100046.00;;;;2090401;28;20334;-65
2023/11/08 00:53:00;;;;;;;4.97;2.50;;;;;21.40;100040.00;;;;2082345;28;20278;-65
2023/11/08 00:54:00;;;;;;;4.70;2.80;;;;;21.40;100041.00;;;;2093033;28;20705;-65
2023/11/08 00:55:01;;;;;;;5.10;2.90;;;;;21.40;100037.00;;;;2087884;28;20599;-65
2023/11/08 00:56:01;;;;;;;3.97;2.53;;;;;21.40;100043.00;;;;2092436;28;20609;-65
2023/11/08 00:57:01;;;;;;;4.37;2.80;;;;;21.40;100045.00;;;;2091636;28;20254;-65
2023/11/08 00:58:02;;;;;;;3.47;2.17;;;;;21.40;100065.00;;;;2086814;28;20216;-65
2023/11/08 00:59:02;;;;;;;4.43;2.93;;;;;21.40;100045.00;;;;2092321;28;20220;-65
2023/11/08 01:00:07;;;;;;;3.70;2.33;;;;;21.40;100049.00;;;;2089267;28;20248;-65
2023/11/08 01:01:07;;;;;;;4.22;2.40;;;;;21.40;100060.00;;;;2092054;28;20227;-65
2023/11/08 01:02:08;;;;;;;2.97;2.03;;;;;21.40;100051.00;;;;2094188;28;20204;-65
2023/11/08 01:03:09;;;;;;;4.57;2.67;;;;;21.40;100044.00;;;;2082346;28;20728;-65
2023/11/08 01:04:11;;;;;;;3.27;2.17;;;;;21.40;100050.00;;;;2083556;28;20681;-65
2023/11/08 01:05:11;;;;;;;4.20;2.30;;;;;21.40;100050.00;;;;2086724;28;20236;-65
2023/11/08 01:06:11;;;;;;;4.73;2.40;;;;;21.40;100051.00;;;;2090842;28;20215;-65
2023/11/08 01:07:12;;;;;;;3.20;2.07;;;;;21.40;100057.00;;;;2093830;28;20205;-65
2023/11/08 01:08:12;;;;;;;3.00;2.10;;;;;21.40;100051.00;;;;2086370;28;20236;-65
2023/11/08 01:09:13;;;;;;;6.50;2.30;;;;;21.40;100061.00;;;;2088528;28;20205;-65
2023/11/08 01:10:16;;;;;;;3.00;2.33;;;;;21.40;100047.00;;;;2089108;28;20217;-65
2023/11/08 01:11:17;;;;;;;3.40;2.10;;;;;21.40;100057.00;;;;2083848;28;20210;-65
2023/11/08 01:12:17;;;;;;;4.17;2.43;;;;;21.40;100049.00;;;;2093779;28;20240;-65
2023/11/08 01:13:18;;;;;;;3.37;1.50;;;;;21.40;100051.00;;;;2083025;28;20228;-65
2023/11/08 01:14:18;;;;;;;2.93;1.90;;;;;21.40;100043.00;;;;2089270;28;20207;-65
2023/11/08 01:15:20;;;;;;;3.70;2.10;;;;;21.40;100052.00;;;;2088578;28;20254;-65
2023/11/08 01:16:21;;;;;;;4.10;2.30;;;;;21.40;100052.00;;;;2095101;28;20711;-65
2023/11/08 01:17:22;;;;;;;2.23;1.67;;;;;21.40;100054.00;;;;2097252;28;20211;-65
2023/11/08 01:18:22;;;;;;;3.53;2.40;;;;;21.30;100049.00;;;;2079477;28;20239;-65
2023/11/08 01:19:23;;;;;;;4.80;2.33;;;;;21.30;100053.00;;;;2089059;28;20201;-65
2023/11/08 01:20:24;;;;;;;2.90;1.95;;;;;21.30;100056.00;;;;2087750;28;20216;-65
2023/11/08 01:21:25;;;;;;;3.23;1.90;;;;;21.30;100054.00;;;;2088931;28;20209;-65
2023/11/08 01:22:25;;;;;;;3.75;2.20;;;;;21.30;100063.00;;;;2087900;28;20205;-65
2023/11/08 01:23:27;;;;;;;3.50;2.13;;;;;21.30;100055.00;;;;2079373;28;20204;-65
2023/11/08 01:24:28;;;;;;;3.70;2.15;;;;;21.30;100052.00;;;;2089220;28;20240;-65
2023/11/08 01:25:28;;;;;;;2.97;1.98;;;;;21.30;100056.00;;;;2088001;28;20282;-65
2023/11/08 01:26:29;;;;;;;3.10;1.97;;;;;21.30;100053.00;;;;2089195;28;20223;-65
2023/11/08 01:27:29;;;;;;;3.67;1.80;;;;;21.30;100055.00;;;;2088650;28;21948;-65
2023/11/08 01:28:30;;;;;;;2.73;1.73;;;;;21.30;100046.00;;;;2082611;28;20561;-65
2023/11/08 01:29:32;;;;;;;3.92;1.80;;;;;21.30;100050.00;;;;2088837;28;20580;-65
2023/11/08 01:30:33;;;;;;;4.65;2.20;;;;;21.30;100053.00;;;;2088414;28;20216;-65
2023/11/08 01:31:33;;;;;;;4.80;2.00;;;;;21.30;100050.00;;;;2097268;28;20605;-65
2023/11/08 01:32:33;;;;;;;4.60;1.67;;;;;21.30;100052.00;;;;2081592;28;20208;-65
2023/11/08 01:33:34;;;;;;;3.17;1.80;;;;;21.30;100026.00;;;;2096751;28;20214;-65
2023/11/08 01:34:35;;;;;;;2.70;1.50;;;;;21.30;100061.00;;;;2094772;28;20205;-65
2023/11/08 01:35:37;;;;;;;3.90;2.00;;;;;21.30;100064.00;;;;2089491;28;20703;-65
2023/11/08 01:36:37;;;;;;;3.65;1.70;;;;;21.30;100062.00;;;;2095778;28;20220;-65
2023/11/08 01:37:39;;;;;;;3.77;1.50;;;;;21.30;100067.00;;;;2079442;28;20696;-65
2023/11/08 01:38:39;;;;;;;3.78;1.77;;;;;21.30;100062.00;;;;2104127;28;20215;-65
2023/11/08 01:39:40;;;;;;;2.67;1.50;;;;;21.30;100041.00;;;;2087022;28;20213;-65
2023/11/08 01:40:43;;;;;;;3.93;1.97;;;;;21.30;100063.00;;;;2079753;28;20214;-65
2023/11/08 01:41:48;;;;;;;2.38;1.77;;;;;21.30;100056.00;;;;2079928;28;20209;-65
2023/11/08 01:42:49;;;;;;;3.15;1.50;;;;;21.30;100061.00;;;;2088668;28;20207;-65
2023/11/08 01:43:49;;;;;;;4.23;1.60;;;;;21.30;100062.00;;;;2102399;28;20254;-65
2023/11/08 01:44:49;;;;;;;2.00;1.60;;;;;21.30;100046.00;;;;2080193;28;20216;-65
2023/11/08 01:45:49;;;;;;;3.97;2.00;;;;;21.30;100074.00;;;;2096434;28;20208;-65
2023/11/08 01:46:52;;;;;;;2.87;1.67;;;;;21.30;100063.00;;;;2078530;28;20296;-65
2023/11/08 01:47:53;;;;;;;2.85;1.73;;;;;21.30;100062.00;;;;2070422;28;20221;-65
2023/11/08 01:48:54;;;;;;;2.50;1.33;;;;;21.30;100039.00;;;;2090237;28;20205;-65
2023/11/08 01:49:54;;;;;;;3.77;1.70;;;;;21.30;100077.00;;;;2081906;28;20210;-65
2023/11/08 01:50:54;;;;;;;2.80;1.33;;;;;21.30;100084.00;;;;2073767;28;20209;-65
2023/11/08 01:51:54;;;;;;;2.97;1.53;;;;;21.30;100028.00;;;;2090676;28;20444;-65
2023/11/08 01:52:55;;;;;;;6.03;1.83;;;;;21.20;100076.00;;;;2078180;28;20308;-65
2023/11/08 01:53:55;;;;;;;2.20;1.40;;;;;21.20;100064.00;;;;2071126;28;20218;-65
2023/11/08 01:54:56;;;;;;;2.93;1.60;;;;;21.30;100073.00;;;;2088233;28;20213;-65
2023/11/08 01:55:56;;;;;;;2.77;1.57;;;;;21.20;100067.00;;;;2088288;28;20205;-65
2023/11/08 01:56:57;;;;;;;2.00;1.10;;;;;21.30;100033.00;;;;2096299;28;20209;-65
2023/11/08 01:57:59;;;;;;;3.00;1.27;;;;;21.20;100067.00;;;;2077956;28;20220;-65
2023/11/08 01:58:59;;;;;;;3.05;1.35;;;;;21.20;100073.00;;;;2083914;28;20578;-65
2023/11/08 01:59:59;;;;;;;2.40;1.50;;;;;21.20;100074.00;;;;2096320;28;20232;-65
2023/11/08 02:01:00;;;;;;;3.57;1.30;;;;;21.20;100075.00;;;;2087777;28;20220;-65
2023/11/08 02:02:00;;;;;;;3.00;1.63;;;;;21.20;100074.00;;;;2088288;28;20224;-65
2023/11/08 02:03:01;;;;;;;2.27;1.13;;;;;21.30;100076.00;;;;2081638;28;20220;-65
2023/11/08 02:04:01;;;;;;;2.73;1.53;;;;;21.20;100083.00;;;;2091844;28;20257;-65
2023/11/08 02:05:02;;;;;;;3.37;1.17;;;;;21.20;100073.00;;;;2088227;28;20720;-65
2023/11/08 02:06:03;;;;;;;2.97;1.40;;;;;21.20;100068.00;;;;2087647;28;20239;-65
2023/11/08 02:07:04;;;;;;;2.65;1.52;;;;;21.20;100067.00;;;;2096881;28;20479;-65
2023/11/08 02:08:05;;;;;;;4.50;1.50;;;;;21.20;100027.00;;;;2080159;28;20221;-65
2023/11/08 02:09:05;;;;;;;2.40;1.40;;;;;21.20;100079.00;;;;2079584;28;20225;-65
2023/11/08 02:10:07;;;;;;;2.33;1.20;;;;;21.20;100068.00;;;;2079044;28;20244;-65
2023/11/08 02:11:08;;;;;;;2.40;1.10;;;;;21.20;100082.00;;;;2080438;28;20227;-65
2023/11/08 02:12:10;;;;;;;1.73;1.17;;;;;21.20;100078.00;;;;2096329;28;20870;-65
2023/11/08 02:13:10;;;;;;;2.30;1.38;;;;;21.20;100070.00;;;;2075144;28;20220;-65
2023/11/08 02:14:11;;;;;;;4.50;1.60;;;;;21.20;100076.00;;;;2091657;28;20215;-65
2023/11/08 02:15:15;;;;;;;2.53;1.30;;;;;21.20;100064.00;;;;2087706;28;20209;-65
2023/11/08 02:16:15;;;;;;;2.10;1.15;;;;;21.20;100082.00;;;;2093905;28;20212;-65
2023/11/08 02:17:15;;;;;;;2.03;1.20;;;;;21.20;100077.00;;;;2094542;28;20711;-65
2023/11/08 02:18:15;;;;;;;3.53;0.90;;;;;21.20;100081.00;;;;2084139;28;20946;-65
2023/11/08 02:19:16;;;;;;;2.00;1.20;;;;;21.20;100077.00;;;;2091720;28;20606;-65
2023/11/08 02:20:17;;;;;;;2.70;1.60;;;;;21.20;100073.00;;;;2087595;28;20220;-65
2023/11/08 02:21:18;;;;;;;1.73;1.20;;;;;21.20;100082.00;;;;2094035;28;20212;-65
2023/11/08 02:22:18;;;;;;;2.27;1.40;;;;;21.20;100083.00;;;;2092175;28;20205;-65
2023/11/08 02:23:19;;;;;;;2.10;1.33;;;;;21.20;100058.00;;;;2083714;28;20271;-65
2023/11/08 02:24:23;;;;;;;1.77;1.00;;;;;21.20;100084.00;;;;2089921;28;20290;-65
2023/11/08 02:25:24;;;;;;;3.67;1.25;;;;;21.20;100070.00;;;;2088205;28;20219;-65
2023/11/08 02:26:24;;;;;;;3.37;1.00;;;;;21.20;100081.00;;;;2093920;28;20708;-65
2023/11/08 02:27:24;;;;;;;2.17;1.00;;;;;21.20;100074.00;;;;2089044;28;20219;-65
2023/11/08 02:28:25;;;;;;;2.33;1.20;;;;;21.20;100070.00;;;;2084200;28;20204;-65
2023/11/08 02:29:26;;;;;;;2.40;1.40;;;;;21.20;100075.00;;;;2088988;28;20220;-65
2023/11/08 02:30:26;;;;;;;1.60;1.15;;;;;21.20;100068.00;;;;2085439;28;20243;-65
2023/11/08 02:31:26;;;;;;;2.70;0.90;;;;;21.20;100080.00;;;;2085947;28;20417;-65
2023/11/08 02:32:27;;;;;;;1.73;0.87;;;;;21.20;100081.00;;;;2090286;28;20247;-65
2023/11/08 02:33:27;;;;;;;1.80;0.97;;;;;21.20;100070.00;;;;2080130;28;20231;-65
2023/11/08 02:34:28;;;;;;;2.33;1.00;;;;;21.20;100074.00;;;;2087848;28;20225;-65
2023/11/08 02:35:29;;;;;;;1.87;0.90;;;;;21.20;100085.00;;;;2088606;28;20263;-65
2023/11/08 02:36:29;;;;;;;2.30;1.00;;;;;21.20;100074.00;;;;2083757;28;20467;-65
2023/11/08 02:37:30;;;;;;;1.33;0.87;;;;;21.10;100081.00;;;;2092680;28;20337;-65
2023/11/08 02:38:31;;;;;;;1.65;0.90;;;;;21.10;100076.00;;;;2096953;28;20299;-65
2023/11/08 02:39:31;;;;;;;1.60;1.00;;;;;21.20;100077.00;;;;2084921;28;20213;-65
2023/11/08 02:40:31;;;;;;;1.97;0.93;;;;;21.20;100077.00;;;;2087993;28;20306;-65
2023/11/08 02:41:32;;;;;;;1.57;0.83;;;;;21.20;100074.00;;;;2087438;28;20224;-65
2023/11/08 02:42:32;;;;;;;2.23;1.07;;;;;21.10;100077.00;;;;2070801;28;20248;-65
2023/11/08 02:43:32;;;;;;;3.00;1.10;;;;;21.10;100064.00;;;;2100022;28;20971;-65
2023/11/08 02:44:33;;;;;;;1.60;0.90;;;;;21.10;100073.00;;;;2092284;28;20638;-65
2023/11/08 02:45:33;;;;;;;1.83;0.80;;;;;21.20;100065.00;;;;2088314;28;20225;-65
2023/11/08 02:46:34;;;;;;;2.80;1.10;;;;;21.10;100063.00;;;;2087443;28;20213;-65
2023/11/08 02:47:35;;;;;;;1.70;1.07;;;;;21.20;100076.00;;;;2084630;28;20318;-65
2023/11/08 02:48:35;;;;;;;2.13;0.90;;;;;21.20;100074.00;;;;2087888;28;20475;-65
2023/11/08 02:49:36;;;;;;;1.30;0.70;;;;;21.20;100070.00;;;;2087186;28;21041;-65
2023/11/08 02:50:40;;;;;;;1.30;0.87;;;;;21.20;100068.00;;;;2094532;28;20303;-65
2023/11/08 02:51:40;;;;;;;2.92;0.90;;;;;21.10;100070.00;;;;2087837;28;20466;-65
2023/11/08 02:52:41;;;;;;;1.97;1.20;;;;;21.10;100065.00;;;;2078397;28;20725;-65
2023/11/08 02:53:41;;;;;;;2.47;1.13;;;;;21.10;100064.00;;;;2082777;28;20578;-65
2023/11/08 02:54:41;;;;;;;1.83;0.80;;;;;21.10;100078.00;;;;2086487;28;20579;-65
2023/11/08 02:55:42;;;;;;;2.73;1.00;;;;;21.10;100066.00;;;;2087027;28;20688;-65
2023/11/08 02:56:42;;;;;;;2.03;0.87;;;;;21.10;100067.00;;;;2087264;28;20658;-65
2023/11/08 02:57:42;;;;;;;1.63;0.87;;;;;21.10;100073.00;;;;2085381;28;20236;-65
2023/11/08 02:58:43;;;;;;;3.00;0.90;;;;;21.10;100073.00;;;;2080418;28;20268;-65
2023/11/08 02:59:44;;;;;;;2.07;1.20;;;;;21.10;100075.00;;;;2086961;28;20219;-65
2023/11/08 03:00:49;;;;;;;1.45;0.98;;;;;21.10;100070.00;;;;2088332;28;20451;-65
2023/11/08 03:01:50;;;;;;;1.38;0.88;;;;;21.10;100066.00;;;;2088099;28;20247;-65
2023/11/08 03:02:54;;;;;;;2.58;0.90;;;;;21.10;100076.00;;;;2080457;28;20939;-65
2023/11/08 03:03:55;;;;;;;1.13;0.75;;;;;21.10;100079.00;;;;2087073;28;20692;-65
2023/11/08 03:04:56;;;;;;;3.00;0.90;;;;;21.10;100077.00;;;;2082113;28;20265;-65
2023/11/08 03:05:57;;;;;;;3.75;1.13;;;;;21.10;100079.00;;;;2089066;28;20283;-65
2023/11/08 03:06:57;;;;;;;1.60;0.93;;;;;21.10;100080.00;;;;2095111;28;21051;-65
2023/11/08 03:07:58;;;;;;;3.30;1.20;;;;;21.10;100083.00;;;;2082527;28;20240;-65
2023/11/08 03:08:59;;;;;;;1.40;0.70;;;;;21.10;100079.00;;;;2093093;28;20219;-65
2023/11/08 03:09:59;;;;;;;3.37;1.10;;;;;21.10;100057.00;;;;2084560;28;20463;-65
2023/11/08 03:11:00;;;;;;;2.97;0.90;;;;;21.10;100086.00;;;;2081428;28;20213;-65
2023/11/08 03:12:00;;;;;;;1.60;0.90;;;;;21.10;100086.00;;;;2085052;28;20617;-65
2023/11/08 03:13:00;;;;;;;1.57;1.00;;;;;21.10;100094.00;;;;2080015;28;20294;-65
2023/11/08 03:14:02;;;;;;;3.13;1.13;;;;;21.10;100080.00;;;;2093527;28;20669;-65
2023/11/08 03:15:03;;;;;;;1.30;0.77;;;;;21.10;100088.00;;;;2085417;28;20216;-65
2023/11/08 03:16:04;;;;;;;1.50;0.80;;;;;21.10;100087.00;;;;2087771;28;20217;-65
2023/11/08 03:17:04;;;;;;;2.10;1.10;;;;;21.10;100085.00;;;;2087192;28;20216;-65
2023/11/08 03:18:05;;;;;;;2.50;1.00;;;;;21.10;100081.00;;;;2085239;28;20223;-65
2023/11/08 03:19:08;;;;;;;1.33;0.80;;;;;21.10;100084.00;;;;2100772;28;20223;-65
2023/11/08 03:20:14;;;;;;;2.28;0.90;;;;;21.10;100091.00;;;;2092657;28;20235;-65
2023/11/08 03:21:14;;;;;;;1.60;0.90;;;;;21.10;100084.00;;;;2096266;28;20277;-65
2023/11/08 03:22:18;;;;;;;2.43;0.97;;;;;21.00;100083.00;;;;2092894;28;20341;-65
2023/11/08 03:23:19;;;;;;;2.50;0.95;;;;;21.10;100050.00;;;;2084689;28;20215;-65
2023/11/08 03:24:19;;;;;;;2.10;0.90;;;;;21.10;100087.00;;;;2087747;28;20263;-65
2023/11/08 03:25:19;;;;;;;1.70;0.83;;;;;21.10;100090.00;;;;2087479;28;20216;-65
2023/11/08 03:26:20;;;;;;;1.60;0.80;;;;;21.00;100082.00;;;;2094099;28;20212;-65
2023/11/08 03:27:22;;;;;;;1.43;0.70;;;;;21.00;100093.00;;;;2091793;28;20257;-65
2023/11/08 03:28:22;;;;;;;2.30;0.98;;;;;21.00;100098.00;;;;2085287;28;20219;-65
2023/11/08 03:29:23;;;;;;;1.90;0.80;;;;;21.00;100092.00;;;;2096379;28;20266;-65
2023/11/08 03:30:23;;;;;;;6.37;1.10;;;;;21.00;100098.00;;;;2089723;28;20216;-65
2023/11/08 03:31:24;;;;;;;2.40;0.77;;;;;21.00;100088.00;;;;2090575;28;20609;-65
2023/11/08 03:32:27;;;;;;;1.40;0.80;;;;;21.10;100097.00;;;;2086467;28;20698;-65
2023/11/08 03:33:27;;;;;;;2.53;0.90;;;;;21.10;100101.00;;;;2082502;28;20241;-65
2023/11/08 03:34:28;;;;;;;1.50;1.00;;;;;21.00;100096.00;;;;2087302;28;20301;-65
2023/11/08 03:35:29;;;;;;;1.70;0.70;;;;;21.00;100092.00;;;;2092766;28;20222;-65
2023/11/08 03:36:29;;;;;;;2.97;1.00;;;;;21.10;100098.00;;;;2087395;28;20522;-65
2023/11/08 03:37:30;;;;;;;1.67;0.70;;;;;21.00;100101.00;;;;2088582;28;20211;-65
2023/11/08 03:38:30;;;;;;;2.13;1.00;;;;;21.10;100094.00;;;;2085287;28;20213;-65
2023/11/08 03:39:30;;;;;;;1.63;0.80;;;;;21.00;100095.00;;;;2087894;28;20243;-65
2023/11/08 03:40:31;;;;;;;1.80;0.70;;;;;21.00;100095.00;;;;2090550;28;20216;-65
2023/11/08 03:41:32;;;;;;;1.50;1.00;;;;;21.00;100095.00;;;;2093115;28;20565;-65
2023/11/08 03:42:34;;;;;;;1.70;0.75;;;;;21.00;100104.00;;;;2084391;28;20216;-65
2023/11/08 03:43:35;;;;;;;1.40;0.90;;;;;21.00;100109.00;;;;2089138;28;20707;-65
2023/11/08 03:44:35;;;;;;;2.63;1.17;;;;;21.00;100104.00;;;;2082598;28;20274;-65
2023/11/08 03:45:36;;;;;;;1.83;0.97;;;;;21.00;100053.00;;;;2089929;28;20232;-65
2023/11/08 03:46:36;;;;;;;1.17;0.70;;;;;21.00;100101.00;;;;2094523;28;20220;-65
2023/11/08 03:47:40;;;;;;;1.30;0.87;;;;;21.00;100099.00;;;;2086446;28;20220;-65
2023/11/08 03:48:40;;;;;;;1.65;0.60;;;;;21.00;100109.00;;;;2085509;28;20224;-65
2023/11/08 03:49:40;;;;;;;1.20;0.70;;;;;21.00;100102.00;;;;2078890;28;20246;-65
2023/11/08 03:50:41;;;;;;;1.30;0.80;;;;;21.00;100103.00;;;;2083223;28;20220;-65
2023/11/08 03:51:42;;;;;;;1.52;0.80;;;;;21.00;100110.00;;;;2087390;28;20570;-65
2023/11/08 03:52:42;;;;;;;2.93;1.10;;;;;21.00;100109.00;;;;2081589;28;20239;-65
2023/11/08 03:53:42;;;;;;;1.47;0.70;;;;;21.00;100100.00;;;;2095729;28;20262;-65
2023/11/08 03:54:43;;;;;;;1.63;0.70;;;;;21.00;100111.00;;;;2088122;28;20274;-65
2023/11/08 03:55:44;;;;;;;1.50;0.70;;;;;21.00;100117.00;;;;2087914;28;20258;-65
2023/11/08 03:56:44;;;;;;;2.07;0.67;;;;;21.00;100111.00;;;;2095333;28;20215;-65
2023/11/08 03:57:45;;;;;;;3.23;0.73;;;;;21.00;100117.00;;;;2076567;28;20236;-65
2023/11/08 03:58:45;;;;;;;1.83;0.80;;;;;21.00;100107.00;;;;2094527;28;20266;-65
2023/11/08 03:59:46;;;;;;;3.93;1.00;;;;;21.00;100114.00;;;;2087227;28;20237;-65
2023/11/08 04:00:47;;;;;;;2.23;1.10;;;;;21.00;100107.00;;;;2087300;28;20217;-65
2023/11/08 04:01:47;;;;;;;2.50;0.90;;;;;21.00;100117.00;;;;2077978;28;20963;-65
2023/11/08 04:02:47;;;;;;;2.40;0.80;;;;;21.00;100111.00;;;;2078961;28;20487;-65
2023/11/08 04:03:48;;;;;;;1.43;0.70;;;;;21.00;100101.00;;;;2094385;28;20628;-65
2023/11/08 04:04:48;;;;;;;1.80;0.80;;;;;21.00;100102.00;;;;2086754;28;20240;-65
2023/11/08 04:05:51;;;;;;;2.03;0.97;;;;;21.00;100106.00;;;;2096354;28;20216;-65
2023/11/08 04:06:52;;;;;;;1.30;0.73;;;;;21.00;100113.00;;;;2094634;28;20285;-65
2023/11/08 04:07:52;;;;;;;1.87;0.73;;;;;21.00;100108.00;;;;2077263;28;20286;-65
2023/11/08 04:08:53;;;;;;;1.43;0.67;;;;;21.00;100099.00;;;;2088023;28;20213;-65
2023/11/08 04:09:54;;;;;;;1.43;0.73;;;;;21.00;100111.00;;;;2086959;28;20258;-65
2023/11/08 04:10:54;;;;;;;2.10;0.80;;;;;21.00;100075.00;;;;2096236;28;21044;-65
2023/11/08 04:11:54;;;;;;;2.13;0.70;;;;;21.00;100111.00;;;;2089735;28;20988;-65
2023/11/08 04:12:55;;;;;;;1.40;0.70;;;;;21.00;100112.00;;;;2086009;28;20781;-65
2023/11/08 04:13:55;;;;;;;1.50;0.73;;;;;21.00;100108.00;;;;2094945;28;20684;-65
2023/11/08 04:14:55;;;;;;;1.50;0.60;;;;;21.00;100106.00;;;;2092199;28;20700;-65
2023/11/08 04:15:56;;;;;;;1.33;0.60;;;;;21.00;100107.00;;;;2095324;28;20298;-65
2023/11/08 04:16:56;;;;;;;1.87;0.90;;;;;21.00;100113.00;;;;2089329;28;20212;-65
2023/11/08 04:17:56;;;;;;;1.77;0.60;;;;;21.00;100105.00;;;;2085975;28;20228;-65
2023/11/08 04:18:57;;;;;;;1.00;0.60;;;;;21.00;100109.00;;;;2091889;28;20224;-65
2023/11/08 04:19:58;;;;;;;1.70;1.00;;;;;21.00;100116.00;;;;2088650;28;20235;-65
2023/11/08 04:20:58;;;;;;;1.45;0.75;;;;;21.00;100103.00;;;;2095821;28;20239;-65
2023/11/08 04:21:59;;;;;;;2.20;0.70;;;;;21.00;100105.00;;;;2085161;28;20205;-65
2023/11/08 04:22:59;;;;;;;1.20;0.70;;;;;21.00;100111.00;;;;2085780;28;20298;-65
2023/11/08 04:23:59;;;;;;;1.20;0.60;;;;;20.90;100094.00;;;;2090149;28;20248;-65
2023/11/08 04:25:00;;;;;;;2.40;1.00;;;;;21.00;100110.00;;;;2088039;28;20213;-65
2023/11/08 04:26:00;;;;;;;1.10;0.70;;;;;21.00;100116.00;;;;2092938;28;20222;-65
2023/11/08 04:27:02;;;;;;;3.30;0.80;;;;;21.00;100107.00;;;;2082276;28;20216;-65
2023/11/08 04:28:03;;;;;;;1.50;0.60;;;;;20.80;100113.00;;;;2085873;28;20240;-65
2023/11/08 04:29:03;;;;;;;1.50;0.80;;;;;21.00;100106.00;;;;2087546;28;20921;-65
2023/11/08 04:30:04;;;;;;;1.37;0.70;;;;;21.00;100109.00;;;;2089269;28;20205;-65
2023/11/08 04:31:04;;;;;;;2.67;0.80;;;;;21.00;100120.00;;;;2092591;28;20298;-65
2023/11/08 04:32:05;;;;;;;1.90;0.83;;;;;21.00;100112.00;;;;2087533;28;20570;-65
2023/11/08 04:33:06;;;;;;;1.50;0.80;;;;;21.00;100121.00;;;;2062664;28;20246;-65
2023/11/08 04:34:06;;;;;;;2.27;0.80;;;;;21.00;100111.00;;;;2069858;28;20222;-65
2023/11/08 04:35:07;;;;;;;1.60;0.70;;;;;20.90;100110.00;;;;2074227;28;20218;-65
2023/11/08 04:36:09;;;;;;;1.13;0.70;;;;;20.90;100117.00;;;;2084021;28;20275;-65
2023/11/08 04:37:11;;;;;;;2.85;0.85;;;;;20.90;100111.00;;;;2094158;28;20212;-65
2023/11/08 04:38:12;;;;;;;1.55;0.70;;;;;20.90;100113.00;;;;2081353;28;20228;-65
2023/11/08 04:39:15;;;;;;;2.37;0.70;;;;;20.90;100125.00;;;;2073575;28;20706;-65
2023/11/08 04:40:18;;;;;;;1.25;0.73;;;;;20.90;100106.00;;;;2077530;28;20567;-65
2023/11/08 04:41:20;;;;;;;1.58;0.55;;;;;20.90;100121.00;;;;2092050;28;20216;-65
2023/11/08 04:42:21;;;;;;;1.85;0.80;;;;;21.00;100116.00;;;;2094245;28;20910;-65
2023/11/08 04:43:21;;;;;;;1.17;0.60;;;;;20.90;100125.00;;;;2066625;28;20229;-65
2023/11/08 04:44:21;;;;;;;2.10;0.90;;;;;21.00;100112.00;;;;2075971;28;20301;-65
2023/11/08 04:45:22;;;;;;;1.00;0.53;;;;;20.90;100107.00;;;;2086427;28;20235;-65
2023/11/08 04:46:22;;;;;;;1.30;0.70;;;;;20.90;100117.00;;;;2089668;28;20216;-65
2023/11/08 04:47:23;;;;;;;2.37;0.80;;;;;20.90;100117.00;;;;2095278;28;20270;-65
2023/11/08 04:48:23;;;;;;;1.30;0.50;;;;;20.90;100122.00;;;;2081832;28;20212;-65
2023/11/08 04:49:24;;;;;;;2.03;0.90;;;;;20.90;100124.00;;;;2092873;28;20448;-65
2023/11/08 04:50:24;;;;;;;1.90;0.83;;;;;20.90;100130.00;;;;2088189;28;20236;-65
2023/11/08 04:51:24;;;;;;;2.27;0.67;;;;;21.00;100126.00;;;;2093578;28;20680;-65
2023/11/08 04:52:25;;;;;;;2.00;0.50;;;;;21.00;100126.00;;;;2089160;28;20799;-65
2023/11/08 04:53:25;;;;;;;2.90;0.70;;;;;20.90;100123.00;;;;2083691;28;20212;-65
2023/11/08 04:54:25;;;;;;;1.43;0.80;;;;;21.00;100129.00;;;;2091359;28;20584;-65
2023/11/08 04:55:26;;;;;;;1.67;0.70;;;;;20.90;100121.00;;;;2092998;28;20566;-65
2023/11/08 04:56:26;;;;;;;2.40;0.70;;;;;20.90;100116.00;;;;2097110;28;20752;-65
2023/11/08 04:57:27;;;;;;;1.97;0.60;;;;;20.90;100120.00;;;;2084278;28;20251;-65
2023/11/08 04:58:28;;;;;;;1.83;0.70;;;;;20.90;100117.00;;;;2085431;28;20676;-65
2023/11/08 04:59:28;;;;;;;1.57;0.60;;;;;20.90;100127.00;;;;2087546;28;20461;-65
2023/11/08 05:00:29;;;;;;;1.93;0.77;;;;;20.90;100142.00;;;;2077749;28;20225;-65